Terminal Aerodrome Forecast
Issued by NWS

Home | Current Version | Previous Version | Text Only | Print | Product List | Glossary On
Versions: 1 2 3 4 5 6 7 8 9 10 11 12 13
000
FTUS41 KBTV 271139
TAFMPV
TAF
KMPV 271139Z 2712/2812 16009KT P6SM SCT200
     FM271600 20012G20KT P6SM VCSH BKN060
     FM271800 21010G18KT P6SM VCSH OVC050
     FM272200 20009KT P6SM BKN060
     FM280000 20008KT P6SM SCT080
     FM280700 19006KT P6SM SCT100=

USA.gov is the U.S. government's official web portal to all federal, state and local government web resources and services.